createdAt,value
2022-08-10T00:04:07.405Z,5.72
2022-08-10T00:09:09.195Z,9.63
2022-08-10T00:14:11.048Z,6.30
2022-08-10T00:19:13.236Z,9.18
2022-08-10T00:24:18.840Z,6.88
2022-08-10T00:29:20.653Z,5.43
2022-08-10T00:34:22.473Z,9.13
2022-08-10T00:39:24.506Z,8.80
2022-08-10T00:44:27.876Z,5.97
2022-08-10T00:49:29.847Z,6.75
2022-08-10T00:54:32.415Z,8.10
2022-08-10T00:59:34.542Z,8.57
2022-08-10T01:04:59.914Z,6.47
2022-08-10T01:10:23.903Z,5.57
2022-08-10T01:15:41.560Z,5.57
2022-08-10T01:21:12.588Z,5.63
2022-08-10T01:26:46.629Z,5.85
2022-08-10T01:31:53.864Z,5.28
2022-08-10T01:37:04.997Z,7.05
2022-08-10T01:42:07.752Z,6.00
2022-08-10T01:47:32.709Z,10.45
2022-08-10T01:52:37.206Z,6.45
2022-08-10T01:57:41.630Z,6.35
2022-08-10T02:02:45.168Z,4.47
2022-08-10T02:07:48.830Z,5.90
2022-08-10T02:12:56.506Z,4.78
2022-08-10T02:18:02.249Z,4.68
2022-08-10T02:23:15.652Z,5.35
2022-08-10T02:28:29.704Z,6.13
2022-08-10T02:33:37.010Z,8.30
2022-08-10T02:38:58.464Z,6.95
2022-08-10T02:45:17.812Z,5.50
2022-08-10T02:49:49.781Z,4.47
2022-08-10T02:54:55.460Z,7.80
2022-08-10T03:00:03.258Z,33.85
2022-08-10T03:05:11.103Z,12.07
2022-08-10T03:10:20.428Z,13.05
2022-08-10T03:15:24.167Z,31.75
2022-08-10T03:20:36.939Z,14.07
2022-08-10T03:25:53.443Z,21.58
2022-08-10T03:30:59.418Z,13.43
2022-08-10T03:36:42.974Z,29.75
2022-08-10T03:41:30.836Z,9.75
2022-08-10T03:46:40.953Z,5.72
2022-08-10T03:51:43.996Z,60.85
2022-08-10T03:56:46.776Z,73.50
2022-08-10T04:02:52.643Z,54.13
2022-08-10T04:07:13.356Z,31.05
2022-08-10T04:12:15.591Z,39.35
2022-08-10T04:17:17.396Z,8.60
2022-08-10T04:22:41.507Z,13.18
2022-08-10T04:27:43.870Z,19.20
2022-08-10T04:32:52.448Z,58.50
2022-08-10T04:37:56.925Z,41.10
2022-08-10T04:43:04.516Z,119.15
2022-08-10T04:48:41.308Z,151.48
2022-08-10T04:53:31.758Z,51.60
2022-08-10T04:58:33.551Z,30.13
2022-08-10T05:03:35.450Z,33.72
2022-08-10T05:08:57.197Z,21.08
2022-08-10T05:13:59.113Z,49.25
2022-08-10T05:19:00.925Z,17.58
2022-08-10T05:24:04.593Z,11.55
2022-08-10T05:29:06.383Z,8.73
2022-08-10T05:34:20.496Z,7.47
2022-08-10T05:39:30.188Z,12.25
2022-08-10T05:44:34.900Z,8.63
2022-08-10T05:49:37.360Z,19.55
2022-08-10T05:54:39.245Z,12.68
2022-08-10T06:00:34.426Z,14.13
2022-08-10T06:05:25.165Z,13.98
2022-08-10T06:10:32.047Z,5.77
2022-08-10T06:15:50.678Z,9.57
2022-08-10T06:20:55.788Z,11.32
2022-08-10T06:26:08.762Z,12.43
2022-08-10T06:31:17.640Z,3.83
2022-08-10T06:36:21.787Z,6.88
2022-08-10T06:41:57.896Z,11.00
2022-08-10T06:46:50.944Z,5.55
2022-08-10T06:51:57.668Z,20.15
2022-08-10T06:57:17.802Z,4.75
2022-08-10T07:02:30.139Z,4.22
2022-08-10T07:07:36.856Z,3.53
2022-08-10T07:12:39.793Z,6.20
2022-08-10T07:17:42.355Z,3.58
2022-08-10T07:23:51.873Z,6.18
2022-08-10T07:28:10.385Z,15.52
2022-08-10T07:33:17.763Z,3.35
2022-08-10T07:38:27.011Z,49.90
2022-08-10T07:43:35.575Z,4.30
2022-08-10T07:48:43.972Z,3.55
2022-08-10T07:53:52.695Z,5.07
2022-08-10T07:59:18.835Z,2.60
2022-08-10T08:04:22.761Z,3.00
2022-08-10T08:09:26.887Z,1.80
2022-08-10T08:14:29.907Z,5.55
2022-08-10T08:19:35.631Z,7.03
2022-08-10T08:24:44.435Z,4.05
2022-08-10T08:29:48.797Z,6.25
2022-08-10T08:34:55.829Z,14.55
2022-08-10T08:39:57.658Z,6.93
2022-08-10T08:45:34.997Z,7.47
2022-08-10T08:50:56.730Z,4.40
2022-08-10T08:56:13.933Z,4.35
2022-08-10T09:01:41.331Z,10.88
2022-08-10T09:07:59.979Z,12.80
2022-08-10T09:12:43.991Z,5.17
2022-08-10T09:17:55.507Z,16.25
2022-08-10T09:23:22.102Z,3.15
2022-08-10T09:28:44.349Z,6.38
2022-08-10T09:36:23.868Z,3.33
2022-08-10T09:41:01.230Z,2.78
2022-08-10T09:46:11.054Z,5.30
2022-08-10T09:51:45.439Z,3.35
2022-08-10T09:57:45.028Z,2.67
2022-08-10T10:02:36.446Z,4.75
2022-08-10T10:07:45.567Z,1.80
2022-08-10T10:12:56.657Z,1.83
2022-08-10T10:18:23.009Z,3.80
2022-08-10T10:23:27.795Z,1.95
2022-08-10T10:34:44.050Z,4.32
2022-08-10T10:39:51.936Z,4.72
2022-08-10T10:50:37.291Z,4.45
2022-08-10T10:56:15.090Z,3.42
2022-08-10T11:01:28.430Z,4.32
2022-08-10T11:07:11.959Z,2.35
2022-08-10T11:12:37.764Z,5.25
2022-08-10T11:17:56.112Z,2.83
2022-08-10T11:23:24.522Z,4.55
2022-08-10T11:28:37.074Z,5.05
2022-08-10T11:34:48.851Z,10.65
2022-08-10T11:39:49.874Z,6.93
2022-08-10T11:44:58.475Z,16.65
2022-08-10T11:50:06.662Z,4.28
2022-08-10T11:55:15.622Z,4.82
2022-08-10T12:00:18.920Z,10.13
2022-08-10T12:05:51.521Z,4.88
2022-08-10T12:10:53.452Z,13.35
2022-08-10T12:16:06.551Z,6.82
2022-08-10T12:21:21.962Z,4.63
2022-08-10T12:26:39.666Z,4.10
2022-08-10T12:31:54.115Z,9.13
2022-08-10T12:37:14.867Z,5.53
2022-08-10T12:42:37.000Z,6.05
2022-08-10T12:47:49.379Z,7.32
2022-08-10T12:52:58.877Z,5.93
2022-08-10T12:58:59.394Z,8.07
2022-08-10T13:04:23.446Z,5.13
2022-08-10T13:09:09.913Z,4.00
2022-08-10T13:14:23.503Z,6.47
2022-08-10T13:19:37.544Z,13.55
2022-08-10T13:24:55.595Z,11.52
2022-08-10T13:30:06.792Z,7.97
2022-08-10T13:35:14.651Z,23.83
2022-08-10T13:40:19.808Z,13.15
2022-08-10T13:45:25.391Z,6.72
2022-08-10T13:50:33.318Z,8.32
2022-08-10T13:55:55.368Z,4.80
2022-08-10T14:01:01.170Z,6.75
2022-08-10T14:06:04.287Z,11.90
2022-08-10T14:11:12.723Z,9.48
2022-08-10T14:21:17.766Z,8.23
2022-08-10T14:26:28.762Z,6.10
2022-08-10T14:31:34.136Z,8.25
2022-08-10T14:36:53.686Z,6.43
2022-08-10T14:42:02.841Z,3.58
2022-08-10T14:47:53.279Z,6.53
2022-08-10T14:52:44.173Z,7.30
2022-08-10T14:58:17.073Z,4.53
2022-08-10T15:03:49.419Z,11.68
2022-08-10T15:08:36.954Z,9.43
2022-08-10T15:14:14.930Z,8.25
2022-08-10T15:20:01.427Z,7.65
2022-08-10T15:24:54.132Z,7.40
2022-08-10T15:29:58.263Z,7.70
2022-08-10T15:35:21.196Z,5.47
2022-08-10T15:40:35.983Z,24.45
2022-08-10T15:45:47.415Z,6.30
2022-08-10T15:50:56.299Z,4.70
2022-08-10T15:56:03.844Z,7.95
2022-08-10T16:02:13.419Z,8.83
2022-08-10T16:06:48.042Z,6.22
2022-08-10T16:12:01.326Z,6.65
2022-08-10T16:17:08.491Z,14.82
2022-08-10T16:22:34.508Z,8.88
2022-08-10T16:27:35.680Z,6.47
2022-08-10T16:32:39.678Z,11.20
2022-08-10T16:37:57.274Z,22.35
2022-08-10T16:43:04.114Z,20.83
2022-08-10T16:48:08.932Z,15.38
2022-08-10T16:53:17.239Z,94.43
2022-08-10T16:58:27.222Z,34.58
2022-08-10T17:04:07.786Z,20.50
2022-08-10T17:08:56.732Z,23.70
2022-08-10T17:14:00.663Z,45.05
2022-08-10T17:19:03.609Z,93.28
2022-08-10T17:24:08.032Z,161.10
2022-08-10T17:29:58.001Z,246.80
2022-08-10T17:34:45.476Z,31.85
2022-08-10T17:39:52.590Z,21.88
2022-08-10T17:44:56.881Z,72.57
2022-08-10T17:50:00.904Z,112.60
2022-08-10T17:55:07.488Z,90.78
2022-08-10T18:00:14.877Z,132.45
2022-08-10T18:05:17.509Z,186.60
2022-08-10T18:10:22.018Z,63.88
2022-08-10T18:15:27.486Z,24.67
2022-08-10T18:20:38.822Z,107.43
2022-08-10T18:25:43.880Z,146.15
2022-08-10T18:30:49.960Z,73.63
2022-08-10T18:35:53.390Z,165.63
2022-08-10T18:41:02.404Z,42.30
2022-08-10T18:46:07.005Z,27.63
2022-08-10T18:51:11.501Z,27.23
2022-08-10T18:56:23.544Z,78.60
2022-08-10T19:01:47.678Z,41.20
2022-08-10T19:07:05.044Z,44.20
2022-08-10T19:12:39.397Z,61.42
2022-08-10T19:18:03.486Z,27.75
2022-08-10T19:23:24.228Z,23.05
2022-08-10T19:28:59.270Z,36.30
2022-08-10T19:34:18.036Z,19.15
2022-08-10T19:46:01.496Z,13.55
2022-08-10T19:51:13.661Z,11.90
2022-08-10T19:56:34.179Z,11.68
2022-08-10T20:01:55.930Z,12.90
2022-08-10T20:07:15.596Z,10.70
2022-08-10T20:12:45.196Z,30.50
2022-08-10T20:18:01.875Z,12.45
2022-08-10T20:23:21.025Z,14.10
2022-08-10T20:28:43.153Z,7.18
2022-08-10T20:34:07.074Z,7.85
2022-08-10T20:39:13.915Z,13.88
2022-08-10T20:44:31.485Z,13.23
2022-08-10T20:50:01.564Z,22.10
2022-08-10T20:55:08.701Z,15.93
2022-08-10T21:00:19.219Z,11.45
2022-08-10T21:05:34.399Z,12.70
2022-08-10T21:11:03.571Z,11.43
2022-08-10T21:16:24.717Z,11.00
2022-08-10T21:21:41.920Z,51.95
2022-08-10T21:27:14.467Z,10.63
2022-08-10T21:32:48.177Z,11.32
2022-08-10T21:38:26.808Z,25.65
2022-08-10T21:44:15.193Z,15.70
2022-08-10T21:50:07.252Z,11.50
2022-08-10T21:55:57.176Z,10.50
2022-08-10T22:01:21.588Z,11.00
2022-08-10T22:07:00.955Z,12.15
2022-08-10T22:12:24.846Z,7.28
2022-08-10T22:18:04.821Z,8.75
2022-08-10T22:23:40.654Z,129.77
2022-08-10T22:29:08.008Z,16.73
2022-08-10T22:34:59.252Z,9.05
2022-08-10T22:40:25.465Z,8.98
2022-08-10T22:45:46.915Z,14.82
2022-08-10T22:50:55.136Z,36.47
2022-08-10T22:56:26.116Z,14.30
2022-08-10T23:02:07.375Z,10.18
2022-08-10T23:07:25.401Z,6.75
2022-08-10T23:12:48.011Z,8.82
2022-08-10T23:18:14.292Z,10.18
2022-08-10T23:23:23.889Z,9.15
2022-08-10T23:28:38.885Z,9.57
2022-08-10T23:33:57.702Z,10.63
2022-08-10T23:39:26.526Z,14.10
2022-08-10T23:44:34.746Z,13.80
2022-08-10T23:49:39.129Z,14.82
2022-08-10T23:54:56.528Z,7.65
